Time;durP1;ratioP1;P1;durP2;ratioP2;P2;SDS_P1;SDS_P2;PMS_P1;PMS_P2;Temp;Humidity;BMP_temperature;BMP_pressure;BME280_temperature;BME280_humidity;BME280_pressure;Samples;Min_cycle;Max_cycle;Signal;HPM_P1;HPM_P2
2022/12/13 00:01:46;;;;;;;2.17;1.00;;;;;;;9.76;77.97;101276.81;5024282;28;20046;-77
2022/12/13 00:04:25;;;;;;;2.25;0.80;;;;;;;9.78;78.96;101277.75;5023521;28;20045;-76
2022/12/13 00:06:54;;;;;;;1.23;0.73;;;;;;;9.79;81.42;101276.91;5026623;28;20037;-76
2022/12/13 00:09:23;;;;;;;4.82;0.88;;;;;;;9.75;82.63;101279.31;5027957;28;20171;-74
2022/12/13 00:11:53;;;;;;;0.93;0.75;;;;;;;9.69;80.08;101289.38;5027262;28;20045;-75
2022/12/13 00:14:22;;;;;;;1.55;0.60;;;;;;;9.65;80.41;101281.53;5030251;28;20049;-72
2022/12/13 00:16:51;;;;;;;1.02;0.68;;;;;;;9.64;82.34;101278.84;5029532;28;20045;-73
2022/12/13 00:19:19;;;;;;;0.70;0.55;;;;;;;9.66;81.92;101279.81;5029814;28;20079;-73
2022/12/13 00:21:56;;;;;;;1.13;0.60;;;;;;;9.68;81.21;101277.28;5028886;28;20629;-73
2022/12/13 00:24:31;;;;;;;4.95;0.77;;;;;;;9.69;81.08;101277.38;5025355;28;20053;-75
2022/12/13 00:27:00;;;;;;;1.30;0.73;;;;;;;9.70;81.05;101271.38;5027376;28;20045;-73
2022/12/13 00:29:29;;;;;;;1.73;0.60;;;;;;;9.69;80.88;101277.38;5022504;28;20049;-76
2022/12/13 00:31:57;;;;;;;1.25;0.60;;;;;;;9.68;81.11;101278.16;5025512;28;20729;-73
2022/12/13 00:34:26;;;;;;;0.80;0.60;;;;;;;9.65;80.18;101278.06;5025357;28;20060;-74
2022/12/13 00:36:58;;;;;;;1.20;0.80;;;;;;;9.57;80.91;101282.00;5025764;28;20053;-74
2022/12/13 00:39:26;;;;;;;5.45;0.95;;;;;;;9.62;81.09;101288.25;5027585;28;20045;-74
2022/12/13 00:41:55;;;;;;;1.55;0.80;;;;;;;9.55;80.62;101293.97;5029935;28;20049;-73
2022/12/13 00:44:24;;;;;;;2.95;0.63;;;;;;;9.42;80.55;101296.06;5027163;28;20045;-73
2022/12/13 00:46:52;;;;;;;1.30;0.80;;;;;;;9.22;80.74;101282.28;5026772;28;20555;-75
2022/12/13 00:49:21;;;;;;;1.13;0.50;;;;;;;9.18;82.38;101292.41;5026787;28;20049;-74
2022/12/13 00:51:50;;;;;;;5.35;0.90;;;;;;;9.09;83.39;101297.16;5022870;28;20057;-74
2022/12/13 00:54:20;;;;;;;1.85;1.20;;;;;;;9.01;85.61;101299.41;5022815;28;20709;-73
2022/12/13 00:56:50;;;;;;;2.67;0.73;;;;;;;8.93;84.73;101304.25;5024263;28;20045;-74
2022/12/13 00:59:18;;;;;;;1.73;0.95;;;;;;;8.87;85.17;101298.78;5024879;28;20491;-74
2022/12/13 01:01:47;;;;;;;1.90;0.80;;;;;;;8.83;85.23;101317.53;5026082;28;20562;-74
2022/12/13 01:04:15;;;;;;;3.42;0.82;;;;;;;8.81;86.39;101308.84;5027295;28;20079;-73
2022/12/13 01:06:48;;;;;;;2.42;0.75;;;;;;;8.83;86.93;101309.78;5024128;28;20049;-72
2022/12/13 01:09:21;;;;;;;0.93;0.52;;;;;;;8.86;87.18;101309.03;5027391;28;20045;-73
2022/12/13 01:11:51;;;;;;;1.00;0.70;;;;;;;8.87;87.16;101311.69;5026124;28;20935;-73
2022/12/13 01:14:20;;;;;;;2.63;0.80;;;;;;;8.87;86.93;101319.44;5026896;28;20054;-73
2022/12/13 01:16:48;;;;;;;1.67;0.70;;;;;;;8.86;86.45;101317.66;5028694;28;20042;-72
2022/12/13 01:19:17;;;;;;;1.20;0.90;;;;;;;8.78;86.23;101319.03;5029152;28;20069;-76
2022/12/13 01:21:46;;;;;;;1.17;0.80;;;;;;;8.76;86.92;101312.91;5022740;28;20049;-78
2022/12/13 01:24:19;;;;;;;1.30;0.88;;;;;;;8.76;87.51;101316.38;5002004;28;20061;-74
2022/12/13 01:26:49;;;;;;;;;;;;;;;8.77;87.25;101319.81;5007626;28;20047;-75
2022/12/13 01:29:18;;;;;;;3.33;1.30;;;;;;;8.79;87.55;101320.78;5005023;28;19989;-77
2022/12/13 01:31:46;;;;;;;2.45;0.80;;;;;;;8.81;87.81;101321.75;5006321;28;20046;-75
2022/12/13 01:34:16;;;;;;;1.77;1.05;;;;;;;8.80;87.05;101327.72;5004199;28;20582;-76
2022/12/13 01:36:47;;;;;;;4.22;1.50;;;;;;;8.76;87.17;101321.53;5010093;28;20654;-78
2022/12/13 01:39:18;;;;;;;3.90;1.80;;;;;;;8.79;87.44;101325.94;5003680;28;20045;-74
2022/12/13 01:41:51;;;;;;;2.70;1.70;;;;;;;8.76;87.67;101341.28;5006836;28;20068;-73
2022/12/13 01:44:56;;;;;;;2.45;1.40;;;;;;;8.75;88.31;101343.00;5009218;28;20045;-74
2022/12/13 01:47:31;;;;;;;3.25;1.48;;;;;;;8.73;87.63;101346.31;5007537;28;20077;-77
2022/12/13 01:50:07;;;;;;;4.60;1.40;;;;;;;8.72;88.64;101349.69;5006416;28;20229;-76
2022/12/13 01:52:36;;;;;;;7.25;1.85;;;;;;;8.68;88.40;101350.34;5007216;28;20645;-76
2022/12/13 01:55:07;;;;;;;3.58;2.00;;;;;;;8.65;88.22;101353.69;5006042;28;20054;-76
2022/12/13 01:57:41;;;;;;;4.45;1.40;;;;;;;8.64;89.66;101353.63;5005269;28;20716;-76
2022/12/13 02:00:11;;;;;;;4.20;1.80;;;;;;;8.63;90.91;101355.31;5004190;28;20057;-76
2022/12/13 02:02:40;;;;;;;2.70;1.58;;;;;;;8.64;90.40;101358.78;5003963;28;20080;-76
2022/12/13 02:05:14;;;;;;;2.88;1.48;;;;;;;8.63;90.26;101354.44;5004308;28;20050;-76
2022/12/13 02:07:44;;;;;;;2.22;1.20;;;;;;;8.51;89.71;101345.28;5006134;28;20056;-76
2022/12/13 02:10:13;;;;;;;4.32;0.73;;;;;;;8.51;91.71;101353.03;5002979;28;20050;-76
2022/12/13 02:12:43;;;;;;;1.30;0.90;;;;;;;8.46;94.43;101351.94;5006517;28;20042;-76
2022/12/13 02:15:16;;;;;;;3.20;1.35;;;;;;;8.35;91.83;101353.09;5007521;28;20046;-77
2022/12/13 02:18:06;;;;;;;2.20;1.35;;;;;;;8.25;92.93;101356.06;5005829;28;20096;-78
2022/12/13 02:21:04;;;;;;;2.58;1.15;;;;;;;8.23;94.02;101355.97;5006108;28;20045;-75
2022/12/13 02:24:05;;;;;;;2.00;1.10;;;;;;;8.23;93.12;101358.53;5028443;28;20511;-77
2022/12/13 02:27:15;;;;;;;6.85;1.27;;;;;;;8.13;92.50;101354.63;5011728;28;20701;-76
2022/12/13 02:30:16;;;;;;;4.35;1.30;;;;;;;8.07;93.42;101354.31;5004280;28;20048;-75
2022/12/13 02:33:03;;;;;;;4.78;1.10;;;;;;;8.14;92.16;101369.28;5020645;28;20041;-76
2022/12/13 02:35:39;;;;;;;3.83;1.88;;;;;;;8.15;91.98;101371.06;5025594;28;20051;-76
2022/12/13 02:38:17;;;;;;;4.13;1.60;;;;;;;8.16;92.24;101372.81;5019555;28;20076;-75
2022/12/13 02:40:50;;;;;;;2.75;1.23;;;;;;;8.16;93.33;101377.09;5023511;28;20042;-76
2022/12/13 02:43:24;;;;;;;2.50;1.30;;;;;;;8.17;92.74;101377.16;5023447;28;20056;-76
2022/12/13 02:45:55;;;;;;;6.82;2.08;;;;;;;8.15;93.22;101386.53;5026834;28;20403;-76
2022/12/13 02:48:29;;;;;;;3.53;2.05;;;;;;;8.14;92.74;101383.88;5021805;28;20697;-74
2022/12/13 02:51:01;;;;;;;4.55;2.05;;;;;;;8.15;93.50;101378.81;5021402;28;20050;-76
2022/12/13 02:53:31;;;;;;;4.82;1.95;;;;;;;8.10;94.45;101381.94;5023390;28;20404;-76
2022/12/13 02:56:00;;;;;;;3.08;1.73;;;;;;;8.08;94.41;101388.72;5026184;28;20049;-80
2022/12/13 02:58:33;;;;;;;4.38;2.08;;;;;;;8.05;95.38;101394.59;5025097;28;20056;-77
2022/12/13 03:01:15;;;;;;;4.32;1.52;;;;;;;8.00;95.24;101390.91;5023520;28;20053;-77
2022/12/13 03:03:54;;;;;;;1.17;1.00;;;;;;;7.96;97.34;101400.19;5027230;28;20045;-75
2022/12/13 03:06:34;;;;;;;5.95;1.83;;;;;;;7.95;97.93;101405.28;5026852;28;20514;-77
2022/12/13 03:09:23;;;;;;;2.92;1.55;;;;;;;7.96;97.77;101407.91;5023987;28;20057;-76
2022/12/13 03:15:02;;;;;;;5.80;1.23;;;;;;;7.96;99.51;101414.75;5019816;28;20080;-75
2022/12/13 03:17:38;;;;;;;1.95;1.40;;;;;;;7.98;98.10;101413.16;5020240;28;20728;-75
2022/12/13 03:20:10;;;;;;;2.75;1.33;;;;;;;7.96;97.26;101409.59;5022934;28;20503;-79
2022/12/13 03:22:38;;;;;;;3.30;1.27;;;;;;;7.94;96.66;101411.22;5020643;28;20143;-73
2022/12/13 03:25:07;;;;;;;2.65;1.50;;;;;;;7.94;96.83;101416.38;5028656;28;20041;-73
2022/12/13 03:27:36;;;;;;;2.45;1.27;;;;;;;7.95;96.98;101413.00;5025050;28;20474;-75
2022/12/13 03:30:05;;;;;;;3.85;1.58;;;;;;;7.95;97.60;101413.00;5024894;28;20538;-76
2022/12/13 03:32:34;;;;;;;5.45;1.40;;;;;;;7.86;97.85;101412.53;5023443;28;20091;-76
2022/12/13 03:35:02;;;;;;;2.65;1.58;;;;;;;7.78;98.57;101419.84;5029875;28;20053;-77
2022/12/13 03:37:33;;;;;;;2.20;1.23;;;;;;;7.74;99.01;101426.56;5029054;28;20061;-77
2022/12/13 03:40:02;;;;;;;4.05;1.58;;;;;;;7.74;99.39;101423.97;5027560;28;20136;-78
2022/12/13 03:42:30;;;;;;;4.18;1.77;;;;;;;7.79;99.17;101431.03;5026574;28;20045;-76
2022/12/13 03:44:59;;;;;;;4.85;1.63;;;;;;;7.82;97.79;101426.94;5029331;28;20715;-78
2022/12/13 03:47:27;;;;;;;3.70;1.40;;;;;;;7.85;97.94;101421.94;5029409;28;20046;-77
2022/12/13 03:49:56;;;;;;;3.78;1.20;;;;;;;7.84;96.41;101433.06;5026878;28;20137;-76
2022/12/13 03:52:25;;;;;;;3.30;1.70;;;;;;;7.84;96.74;101420.19;5022559;28;20492;-77
2022/12/13 03:54:55;;;;;;;2.92;1.38;;;;;;;7.85;96.38;101429.66;5028759;28;20052;-76
2022/12/13 03:57:24;;;;;;;7.85;2.30;;;;;;;7.87;95.51;101427.19;5028390;28;20140;-78
2022/12/13 03:59:52;;;;;;;3.13;1.70;;;;;;;7.85;96.55;101421.94;5028617;28;20046;-77
2022/12/13 04:02:21;;;;;;;5.65;2.15;;;;;;;7.87;95.68;101432.31;5024978;28;20049;-73
2022/12/13 04:04:49;;;;;;;4.53;2.10;;;;;;;7.85;95.98;101431.38;5020326;28;20045;-74
2022/12/13 04:07:18;;;;;;;7.80;2.58;;;;;;;7.87;95.52;101424.59;5028634;28;20043;-76
2022/12/13 04:09:46;;;;;;;6.32;1.92;;;;;;;7.86;96.61;101422.84;5028396;28;20057;-76
2022/12/13 04:14:58;;;;;;;3.17;1.75;;;;;;;7.81;96.57;101439.72;4982513;28;20123;-75
2022/12/13 04:17:27;;;;;;;3.47;2.00;;;;;;;7.82;96.75;101433.78;5030619;28;20693;-75
2022/12/13 04:19:56;;;;;;;4.85;2.75;;;;;;;7.80;96.22;101433.69;5027324;28;20046;-74
2022/12/13 04:22:24;;;;;;;5.78;2.50;;;;;;;7.79;97.04;101429.38;5030159;28;20057;-74
2022/12/13 04:24:53;;;;;;;4.05;1.63;;;;;;;7.79;97.19;101429.38;5027509;28;20041;-74
2022/12/13 04:27:23;;;;;;;3.30;1.92;;;;;;;7.74;96.51;101431.72;5024918;28;20534;-74
2022/12/13 04:29:52;;;;;;;3.20;1.40;;;;;;;7.71;98.15;101428.97;5028713;28;20056;-74
2022/12/13 04:32:20;;;;;;;2.35;1.38;;;;;;;7.68;100.00;101433.97;5021428;28;20046;-75
2022/12/13 04:34:49;;;;;;;2.17;1.30;;;;;;;7.61;99.07;101434.44;5026151;28;20289;-75
2022/12/13 04:37:18;;;;;;;3.70;1.83;;;;;;;7.53;98.19;101438.28;5028882;28;20045;-74
2022/12/13 04:39:46;;;;;;;1.85;1.20;;;;;;;7.48;97.17;101435.47;5026368;28;20503;-75
2022/12/13 04:42:15;;;;;;;3.78;1.40;;;;;;;7.48;97.62;101434.59;5023550;28;20050;-74
2022/12/13 04:44:45;;;;;;;2.10;1.42;;;;;;;7.49;98.02;101437.28;5026964;28;20134;-74
2022/12/13 04:47:14;;;;;;;2.40;1.20;;;;;;;7.51;97.02;101433.09;5027538;28;20681;-73
2022/12/13 04:49:42;;;;;;;3.15;1.30;;;;;;;7.55;97.30;101436.69;5025359;28;20053;-73
2022/12/13 04:52:11;;;;;;;3.38;1.65;;;;;;;7.55;97.31;101431.53;5027166;28;20033;-73
2022/12/13 04:54:40;;;;;;;2.50;1.50;;;;;;;7.53;97.13;101433.16;5027945;28;20049;-73
2022/12/13 04:57:11;;;;;;;5.15;2.03;;;;;;;7.57;96.71;101437.66;5028529;28;20042;-73
2022/12/13 04:59:41;;;;;;;2.13;1.65;;;;;;;7.57;96.05;101437.66;5026272;28;20044;-73
2022/12/13 05:02:12;;;;;;;3.75;1.92;;;;;;;7.57;96.25;101440.22;5024561;28;20057;-73
2022/12/13 05:04:40;;;;;;;3.95;1.77;;;;;;;7.60;96.52;101447.22;5030696;28;20067;-79
2022/12/13 05:07:09;;;;;;;5.28;2.42;;;;;;;7.60;94.61;101444.66;5029755;28;20077;-73
2022/12/13 05:09:37;;;;;;;3.58;2.45;;;;;;;7.57;94.42;101437.66;5026888;28;20049;-75
2022/12/13 05:12:06;;;;;;;6.30;2.45;;;;;;;7.55;93.96;101437.56;5024409;28;20084;-75
2022/12/13 05:14:35;;;;;;;3.00;1.98;;;;;;;7.56;93.65;101443.63;5027515;28;20044;-74
2022/12/13 05:17:03;;;;;;;4.38;1.65;;;;;;;7.51;93.98;101456.25;5029645;28;20045;-74
2022/12/13 05:19:34;;;;;;;5.78;2.92;;;;;;;7.49;93.49;101456.97;5025912;28;20485;-73
2022/12/13 05:22:02;;;;;;;5.45;3.13;;;;;;;7.48;93.14;101457.78;5024537;28;20049;-74
2022/12/13 05:24:32;;;;;;;5.72;2.70;;;;;;;7.46;92.86;101451.66;5022553;28;20038;-74
2022/12/13 05:27:00;;;;;;;5.25;3.20;;;;;;;7.37;92.28;101441.75;5026304;28;20198;-74
2022/12/13 05:29:29;;;;;;;8.02;3.90;;;;;;;7.42;91.62;101454.88;5024150;28;20057;-74
2022/12/13 05:31:58;;;;;;;8.63;3.45;;;;;;;7.39;89.15;101458.16;5026685;28;20484;-74
2022/12/13 05:34:27;;;;;;;6.70;3.05;;;;;;;7.34;88.39;101460.50;5024494;28;20101;-74
2022/12/13 05:36:57;;;;;;;4.70;2.92;;;;;;;7.36;90.71;101475.16;5026351;28;20056;-74
2022/12/13 05:39:25;;;;;;;4.82;2.28;;;;;;;7.31;93.75;101472.34;5025801;28;20042;-74
2022/12/13 05:41:55;;;;;;;6.18;2.67;;;;;;;7.30;94.67;101473.13;5023428;28;20046;-75
2022/12/13 05:44:24;;;;;;;4.55;2.78;;;;;;;7.26;94.25;101469.50;5028102;28;20102;-74
2022/12/13 05:46:52;;;;;;;5.55;2.75;;;;;;;7.23;94.31;101471.03;5024386;28;20518;-74
2022/12/13 05:49:21;;;;;;;5.28;2.78;;;;;;;7.18;92.91;101468.19;5025437;28;20069;-74
2022/12/13 05:51:49;;;;;;;4.43;2.55;;;;;;;7.19;93.10;101476.78;5026670;28;20045;-74
2022/12/13 05:54:20;;;;;;;4.93;2.60;;;;;;;7.16;90.75;101472.38;5026115;28;20052;-74
2022/12/13 05:56:48;;;;;;;4.72;2.63;;;;;;;7.17;89.48;101471.59;5026053;28;20050;-74
2022/12/13 05:59:17;;;;;;;4.78;2.42;;;;;;;7.16;90.27;101482.66;5021368;28;20077;-74
2022/12/13 06:01:45;;;;;;;5.55;3.10;;;;;;;7.13;89.68;101474.78;5023532;28;20053;-73
2022/12/13 06:04:14;;;;;;;5.47;2.20;;;;;;;7.12;89.52;101475.56;5028624;28;20659;-74
2022/12/13 06:06:42;;;;;;;5.68;2.20;;;;;;;7.10;89.32;101474.59;5028056;28;20045;-74
2022/12/13 06:09:11;;;;;;;4.88;2.95;;;;;;;7.08;88.45;101474.53;5025089;28;20519;-74
2022/12/13 06:11:49;;;;;;;5.88;2.90;;;;;;;7.07;87.59;101471.88;5027853;28;20453;-74
2022/12/13 06:14:18;;;;;;;8.13;2.97;;;;;;;7.05;87.66;101470.88;5023358;28;20119;-74
2022/12/13 06:16:46;;;;;;;5.82;3.40;;;;;;;7.02;88.24;101473.31;5025352;28;20053;-74
2022/12/13 06:19:15;;;;;;;4.68;2.60;;;;;;;6.97;88.52;101475.63;5025827;28;20041;-75
2022/12/13 06:21:43;;;;;;;4.82;2.63;;;;;;;6.97;89.09;101474.75;5024895;28;20041;-75
2022/12/13 06:24:12;;;;;;;9.98;2.90;;;;;;;6.92;88.55;101475.38;5008674;28;20045;-75
2022/12/13 06:26:43;;;;;;;6.95;2.78;;;;;;;6.89;89.63;101479.44;5005869;28;20088;-75
2022/12/13 06:29:11;;;;;;;5.82;2.90;;;;;;;6.84;89.57;101471.47;5002619;28;20061;-74
2022/12/13 06:31:40;;;;;;;6.47;3.42;;;;;;;6.80;90.15;101473.78;5007554;28;20582;-77
2022/12/13 06:34:09;;;;;;;4.60;2.50;;;;;;;6.76;90.73;101477.88;5007307;28;20171;-78
2022/12/13 06:36:37;;;;;;;4.82;2.38;;;;;;;6.64;90.78;101469.47;5005332;28;20046;-76
2022/12/13 06:39:07;;;;;;;7.03;2.95;;;;;;;6.64;89.76;101475.50;5006779;28;20049;-76
2022/12/13 06:41:36;;;;;;;10.48;3.83;;;;;;;6.61;89.56;101474.44;5008665;28;20139;-76
2022/12/13 06:44:07;;;;;;;4.60;2.88;;;;;;;6.57;90.15;101467.34;5006257;28;20092;-78
2022/12/13 06:46:35;;;;;;;7.10;3.05;;;;;;;6.55;90.17;101479.22;5007265;28;20112;-76
2022/12/13 06:49:04;;;;;;;8.10;3.05;;;;;;;6.49;89.98;101475.50;5001442;28;20054;-76
2022/12/13 06:51:34;;;;;;;5.20;3.15;;;;;;;6.47;90.39;101471.97;5006494;28;20061;-76
2022/12/13 06:54:03;;;;;;;5.85;3.15;;;;;;;6.43;89.82;101469.13;5002961;28;20092;-76
2022/12/13 06:56:33;;;;;;;6.97;3.38;;;;;;;6.40;89.49;101479.25;5004929;28;20060;-76
2022/12/13 06:59:01;;;;;;;8.63;4.32;;;;;;;6.36;90.07;101483.31;5006314;28;20137;-76
2022/12/13 07:01:32;;;;;;;6.93;3.33;;;;;;;6.34;90.74;101486.59;5006246;28;20053;-76
2022/12/13 07:04:00;;;;;;;6.90;3.00;;;;;;;6.27;91.32;101495.63;5007304;28;20709;-76
2022/12/13 07:06:29;;;;;;;8.02;4.05;;;;;;;6.23;91.73;101496.22;5008664;28;20133;-76
2022/12/13 07:08:59;;;;;;;9.25;3.67;;;;;;;6.20;92.05;101501.19;5008674;28;20069;-76
2022/12/13 07:11:31;;;;;;;11.73;3.78;;;;;;;6.17;92.30;101493.31;5008279;28;20064;-76
2022/12/13 07:14:00;;;;;;;8.88;3.88;;;;;;;6.12;92.22;101494.75;5010334;28;20049;-76
2022/12/13 07:16:31;;;;;;;11.88;4.72;;;;;;;6.06;93.04;101501.25;5007744;28;20229;-76
2022/12/13 07:19:01;;;;;;;18.52;4.07;;;;;;;6.05;93.50;101496.94;5010647;28;20061;-76
2022/12/13 07:21:30;;;;;;;14.02;5.22;;;;;;;6.03;93.80;101497.66;5007624;28;20064;-76
2022/12/13 07:24:00;;;;;;;14.43;4.45;;;;;;;6.03;94.67;101506.22;5010324;28;20563;-75
2022/12/13 07:26:29;;;;;;;18.48;4.78;;;;;;;6.03;94.51;101508.81;5009368;28;20508;-76
2022/12/13 07:28:58;;;;;;;7.80;3.65;;;;;;;6.01;94.91;101502.69;5006323;28;20057;-76
2022/12/13 07:31:27;;;;;;;10.07;4.72;;;;;;;6.00;95.31;101507.72;5007851;28;20077;-77
2022/12/13 07:33:57;;;;;;;8.32;3.13;;;;;;;6.00;95.82;101513.75;5013215;28;20099;-76
2022/12/13 07:36:27;;;;;;;7.80;3.15;;;;;;;6.00;95.69;101511.19;5009779;28;20053;-76
2022/12/13 07:38:57;;;;;;;10.18;3.03;;;;;;;6.01;95.61;101512.06;5011430;28;20054;-76
2022/12/13 07:41:27;;;;;;;6.32;3.00;;;;;;;6.00;95.13;101513.75;5010109;28;20053;-76
2022/12/13 07:43:57;;;;;;;12.82;3.75;;;;;;;6.01;95.38;101515.53;5011167;28;20050;-76
2022/12/13 07:46:26;;;;;;;6.47;3.08;;;;;;;5.99;94.83;101514.53;5008863;28;20687;-75
2022/12/13 07:48:56;;;;;;;4.18;2.05;;;;;;;5.98;94.71;101511.88;5008850;28;20043;-75
2022/12/13 07:51:25;;;;;;;2.83;2.00;;;;;;;5.97;94.69;101523.84;5008701;28;20050;-76
2022/12/13 07:53:54;;;;;;;6.47;2.13;;;;;;;5.99;94.32;101517.09;5005848;28;20042;-76
2022/12/13 07:56:23;;;;;;;4.35;2.15;;;;;;;5.98;94.82;101522.16;5006821;28;20756;-75
2022/12/13 07:58:51;;;;;;;3.88;1.90;;;;;;;6.01;93.14;101525.81;5009948;28;20049;-75
2022/12/13 08:01:20;;;;;;;4.97;1.85;;;;;;;6.01;91.61;101507.81;5008765;28;20386;-76
2022/12/13 08:03:49;;;;;;;3.95;2.20;;;;;;;6.03;93.34;101513.94;5007990;28;20161;-76
2022/12/13 08:06:19;;;;;;;4.80;2.00;;;;;;;6.04;94.45;101518.25;5005037;28;20052;-76
2022/12/13 08:08:49;;;;;;;3.35;1.50;;;;;;;6.06;89.83;101518.38;5008888;28;20310;-76
2022/12/13 08:11:18;;;;;;;3.85;1.20;;;;;;;6.10;87.93;101514.31;5010644;28;20061;-75
2022/12/13 08:13:47;;;;;;;1.75;1.10;;;;;;;6.12;85.81;101510.16;5010440;28;20041;-75
2022/12/13 08:16:17;;;;;;;1.95;1.00;;;;;;;6.18;85.21;101518.22;5006834;28;20053;-76
2022/12/13 08:18:46;;;;;;;2.70;1.02;;;;;;;6.20;83.60;101516.63;5008221;28;20861;-76
2022/12/13 08:21:15;;;;;;;2.97;1.15;;;;;;;6.23;82.96;101519.34;5010158;28;20081;-75
2022/12/13 08:23:45;;;;;;;1.73;1.08;;;;;;;6.25;82.55;101510.06;5024312;28;20104;-75
2022/12/13 08:26:14;;;;;;;1.27;0.80;;;;;;;6.27;82.19;101511.91;5026489;28;20042;-76
2022/12/13 08:28:42;;;;;;;2.65;1.33;;;;;;;6.28;82.64;101520.53;5025291;28;20300;-75
2022/12/13 08:31:13;;;;;;;3.50;1.30;;;;;;;6.29;82.94;101517.16;5026708;28;20180;-75
2022/12/13 08:33:44;;;;;;;2.60;1.25;;;;;;;6.25;83.49;101526.41;5025874;28;20049;-75
2022/12/13 08:36:14;;;;;;;1.20;0.90;;;;;;;6.23;83.76;101527.06;5026114;28;20417;-75
2022/12/13 08:38:45;;;;;;;3.30;1.25;;;;;;;6.18;84.45;101520.78;5025769;28;20053;-76
2022/12/13 08:41:13;;;;;;;1.52;1.20;;;;;;;6.16;84.23;101524.94;5026893;28;20099;-76
2022/12/13 08:43:42;;;;;;;1.42;1.13;;;;;;;6.01;83.44;101512.97;5025981;28;20046;-76
2022/12/13 08:46:11;;;;;;;2.70;1.38;;;;;;;6.02;83.70;101526.69;5027592;28;20053;-76
2022/12/13 08:48:39;;;;;;;6.22;1.25;;;;;;;5.96;84.32;101531.47;5029015;28;20726;-76
2022/12/13 08:51:10;;;;;;;2.13;1.00;;;;;;;5.93;84.27;101538.94;5026303;28;20060;-76
2022/12/13 08:53:39;;;;;;;2.08;1.10;;;;;;;5.90;82.93;101534.50;5025762;28;20669;-76
2022/12/13 08:56:12;;;;;;;1.25;0.82;;;;;;;5.87;82.58;101531.75;5026603;28;20518;-76
2022/12/13 08:58:41;;;;;;;2.75;1.23;;;;;;;5.83;82.95;101529.78;5029014;28;20079;-75
2022/12/13 09:01:10;;;;;;;1.42;0.90;;;;;;;5.77;83.50;101538.03;5025347;28;20258;-76
2022/12/13 09:03:39;;;;;;;1.90;0.93;;;;;;;5.72;82.78;101536.81;5028142;28;20096;-75
2022/12/13 09:06:09;;;;;;;1.40;0.82;;;;;;;5.66;82.35;101537.34;5027376;28;20491;-76
2022/12/13 09:08:38;;;;;;;1.83;0.80;;;;;;;5.63;81.79;101537.13;5027235;28;20060;-75
2022/12/13 09:11:09;;;;;;;2.55;1.02;;;;;;;5.59;81.22;101539.44;5026205;28;20049;-76
2022/12/13 09:13:39;;;;;;;2.15;1.13;;;;;;;5.58;82.51;101540.22;5021417;28;20140;-76
2022/12/13 09:16:11;;;;;;;1.55;1.13;;;;;;;5.54;80.97;101540.81;5025120;28;20045;-75
2022/12/13 09:18:40;;;;;;;2.13;0.93;;;;;;;5.50;79.86;101538.84;5023695;28;20119;-75
2022/12/13 09:21:10;;;;;;;2.20;1.25;;;;;;;5.47;80.62;101544.69;5022523;28;20075;-76
2022/12/13 09:23:39;;;;;;;4.32;0.90;;;;;;;5.45;79.67;101548.84;5012452;28;20058;-76
2022/12/13 09:26:10;;;;;;;2.45;1.10;;;;;;;5.39;79.63;101545.91;5008677;28;20045;-75
2022/12/13 09:28:39;;;;;;;1.42;0.93;;;;;;;5.32;81.12;101543.75;5005213;28;20069;-76
2022/12/13 09:31:09;;;;;;;2.22;1.42;;;;;;;5.25;81.87;101551.03;5007481;28;20049;-77
2022/12/13 09:33:38;;;;;;;2.38;1.40;;;;;;;5.20;82.76;101548.97;5001195;28;20082;-76
2022/12/13 09:36:08;;;;;;;1.30;0.88;;;;;;;5.21;81.78;101554.19;5011462;28;20140;-76
2022/12/13 09:38:37;;;;;;;1.38;0.82;;;;;;;5.18;82.39;101556.59;5007140;28;20488;-76
2022/12/13 09:41:18;;;;;;;2.65;1.30;;;;;;;5.19;81.73;101548.06;5003380;28;20082;-75
2022/12/13 09:43:50;;;;;;;1.83;1.33;;;;;;;5.17;82.21;101554.78;5007161;28;20125;-76
2022/12/13 09:46:27;;;;;;;3.00;1.17;;;;;;;5.13;83.58;101552.84;5007499;28;20085;-77
2022/12/13 09:48:58;;;;;;;2.47;1.13;;;;;;;5.09;82.00;101550.84;5006889;28;20100;-76
2022/12/13 09:51:26;;;;;;;3.55;1.50;;;;;;;5.04;82.34;101552.25;5008369;28;20042;-76
2022/12/13 09:53:56;;;;;;;1.52;1.20;;;;;;;5.01;83.05;101552.03;5006855;28;20059;-76
2022/12/13 09:56:26;;;;;;;2.85;1.20;;;;;;;5.00;83.04;101561.41;5005363;28;20044;-76
2022/12/13 09:58:57;;;;;;;3.47;1.23;;;;;;;4.98;83.34;101554.41;5006369;28;20578;-76
2022/12/13 10:01:26;;;;;;;3.22;1.23;;;;;;;4.97;83.86;101556.09;5009947;28;20479;-76
2022/12/13 10:03:58;;;;;;;1.95;1.35;;;;;;;4.93;84.29;101558.34;5006043;28;20038;-76
2022/12/13 10:06:30;;;;;;;2.22;1.17;;;;;;;4.89;83.95;101562.38;5000428;28;20137;-76
2022/12/13 10:09:01;;;;;;;3.40;1.42;;;;;;;4.78;83.58;101561.66;5002904;28;20057;-77
2022/12/13 10:11:32;;;;;;;1.10;1.00;;;;;;;4.71;85.00;101567.19;5004265;28;20436;-75
2022/12/13 10:14:06;;;;;;;2.05;1.05;;;;;;;4.59;86.44;101566.38;5008271;28;20053;-77
2022/12/13 10:16:44;;;;;;;3.30;0.93;;;;;;;4.57;87.16;101580.78;5008060;28;20050;-76
2022/12/13 10:19:18;;;;;;;2.25;1.30;;;;;;;4.53;86.42;101584.78;5004374;28;20047;-77
2022/12/13 10:21:47;;;;;;;1.60;1.08;;;;;;;4.51;86.31;101581.28;5007082;28;20050;-76
2022/12/13 10:24:19;;;;;;;4.70;1.35;;;;;;;4.47;85.94;101575.84;5020274;28;20661;-76
2022/12/13 10:26:50;;;;;;;3.27;1.90;;;;;;;4.43;86.13;101578.97;5025102;28;20419;-75
2022/12/13 10:29:18;;;;;;;7.15;2.00;;;;;;;4.37;86.17;101580.31;5024496;28;20060;-76
2022/12/13 10:31:49;;;;;;;3.78;2.20;;;;;;;4.33;86.69;101582.56;5023144;28;20065;-76
2022/12/13 10:34:23;;;;;;;4.03;1.60;;;;;;;4.27;86.63;101580.47;5024818;28;20045;-76
2022/12/13 10:36:52;;;;;;;2.60;1.35;;;;;;;4.23;86.99;101580.16;5025263;28;20055;-76
2022/12/13 10:39:38;;;;;;;4.00;1.58;;;;;;;4.18;87.01;101578.19;5019947;28;20120;-76
2022/12/13 10:42:14;;;;;;;7.20;3.55;;;;;;;4.15;86.78;101577.09;5026053;28;20057;-77
2022/12/13 10:44:50;;;;;;;7.28;2.88;;;;;;;4.11;87.11;101580.22;5031408;28;20045;-77
2022/12/13 10:47:22;;;;;;;7.60;2.70;;;;;;;4.08;86.75;101586.03;5026798;28;20093;-77
2022/12/13 10:49:55;;;;;;;10.82;4.35;;;;;;;4.04;87.34;101586.59;5030825;28;20041;-77
2022/12/13 10:52:28;;;;;;;8.43;3.05;;;;;;;4.00;87.55;101584.59;5030519;28;20116;-77
2022/12/13 10:54:58;;;;;;;6.40;2.38;;;;;;;3.91;87.98;101579.72;5030326;28;20049;-77
2022/12/13 10:57:29;;;;;;;5.00;2.03;;;;;;;3.95;88.32;101588.53;5025982;28;20053;-77
2022/12/13 10:59:57;;;;;;;9.43;2.92;;;;;;;3.92;89.22;101578.97;5029727;28;20499;-77
2022/12/13 11:02:32;;;;;;;5.97;2.55;;;;;;;3.89;88.92;101583.84;5033312;28;20053;-77
2022/12/13 11:05:17;;;;;;;8.32;2.88;;;;;;;3.82;88.90;101585.88;5030745;28;20054;-77
2022/12/13 11:07:45;;;;;;;7.40;3.67;;;;;;;3.78;88.53;101589.91;5029353;28;20412;-77
2022/12/13 11:10:21;;;;;;;12.07;3.78;;;;;;;3.74;89.77;101595.59;5028983;28;20116;-77
2022/12/13 11:12:54;;;;;;;10.48;3.17;;;;;;;3.69;90.55;101586.72;5027377;28;20423;-78
2022/12/13 11:15:28;;;;;;;13.23;3.20;;;;;;;3.64;91.95;101590.59;5027901;28;20060;-77
2022/12/13 11:17:59;;;;;;;5.75;2.47;;;;;;;3.56;93.37;101593.50;5028852;28;20052;-77
2022/12/13 11:20:32;;;;;;;7.50;2.65;;;;;;;3.52;94.78;101596.63;5030203;28;20054;-77
2022/12/13 11:23:05;;;;;;;6.07;2.10;;;;;;;3.50;95.75;101593.06;5022837;28;20664;-76
2022/12/13 11:25:39;;;;;;;9.15;2.42;;;;;;;3.51;96.40;101592.28;5029452;28;20049;-76
2022/12/13 11:28:25;;;;;;;5.18;2.40;;;;;;;3.53;96.29;101588.19;5028387;28;20054;-76
2022/12/13 11:31:06;;;;;;;6.30;1.88;;;;;;;3.56;95.65;101590.94;5028055;28;20134;-76
2022/12/13 11:33:44;;;;;;;4.07;2.35;;;;;;;3.59;95.95;101594.50;5031738;28;20068;-76
2022/12/13 11:36:24;;;;;;;8.70;2.38;;;;;;;3.61;95.96;101596.38;5031970;28;20515;-77
2022/12/13 11:39:07;;;;;;;3.47;1.60;;;;;;;3.64;94.94;101603.38;5028093;28;20050;-76
2022/12/13 11:41:39;;;;;;;4.75;1.60;;;;;;;3.65;95.45;101602.63;5026346;28;20049;-77
2022/12/13 11:44:13;;;;;;;;;;;;;;;3.66;95.48;101596.72;5030151;28;20109;-77
2022/12/13 11:46:43;;;;;;;;;;;;;;;3.67;95.39;101601.06;5028837;28;19921;-77
2022/12/13 11:49:17;;;;;;;4.72;1.95;;;;;;;3.68;95.04;101597.72;5026129;28;19932;-78
2022/12/13 11:51:49;;;;;;;5.45;2.08;;;;;;;3.67;95.65;101603.63;5024589;28;20088;-77
2022/12/13 11:54:28;;;;;;;2.75;1.92;;;;;;;3.70;95.50;101608.94;5029576;28;20076;-77
2022/12/13 11:56:59;;;;;;;6.07;2.53;;;;;;;3.73;95.51;101606.59;5028729;28;20061;-77
2022/12/13 11:59:37;;;;;;;3.35;1.73;;;;;;;3.74;95.68;101610.97;5025542;28;20053;-77